• Join FlightAware (Why Join?)
  • Login
  • US Flag 
01:48AM EDT


 

Airport Tracker/Info


-or-


 

Live Flight TrackerFlight Track Log ✈ N11LS ✈ 19-Jun-2013 ✈ KOXC - KWVL

Flight Track Log - Related Links

Times and Time Zones

All times are in EDT time to prevent confusion due to time zone crossing. See the N11LS flight status page for this flight to view local times or setup timezone preferences in your user account.

Time Position Orientation Groundspeed Altitude Reporting Facility
EDT Latitude Longitude Course Direction KTS MPH feet Rate Location/Type
05:25PM 41.6167 -73.1333 56° Northeast 132 152 5,500  Level New York TRACON
05:26PM 41.6333 -73.1000 56° Northeast 130 150 5,500  Level New York TRACON
05:27PM 41.6775 -73.0600 34° Northeast 131 151 5,500  Level Boston Center
05:28PM 41.6944 -73.0433 36° Northeast 131 151 5,500  Level Boston Center
05:29PM 41.7342 -73.0019 38° Northeast 133 153 5,500  Level Boston Center
05:30PM 41.7531 -72.9772 44° Northeast 133 153 5,500  Level Boston Center
05:31PM 41.7825 -72.9439 40° Northeast 134 154 5,500  Level Boston Center
05:32PM 41.8097 -72.9164 37° Northeast 135 155 5,500  Level Boston Center
05:33PM 41.8431 -72.8747 43° Northeast 135 155 5,500  Level Boston Center
05:34PM 41.8744 -72.8444 36° Northeast 135 155 5,500  Level Boston Center
05:35PM 41.8997 -72.8139 42° Northeast 134 154 5,500  Level Boston Center
05:36PM 41.9289 -72.7806 40° Northeast 135 155 5,500  Level Boston Center
05:37PM 41.9603 -72.7444 41° Northeast 136 157 5,500  Level Boston Center
05:38PM 41.9875 -72.7139 40° Northeast 137 158 5,500  Level Boston Center
05:39PM 42.0147 -72.6803 43° Northeast 140 161 5,500  Level Boston Center
05:40PM 42.0439 -72.6469 40° Northeast 136 157 5,500  Level Boston Center
05:41PM 42.0753 -72.6136 38° Northeast 138 159 5,500  Level Boston Center
05:42PM 42.1064 -72.5744 43° Northeast 138 159 5,500  Level Boston Center
05:43PM 42.1336 -72.5464 37° Northeast 133 153 5,500  Level Boston Center
05:45PM 42.1711 -72.5017 41° Northeast 138 159 5,500  Level Boston Center
05:46PM 42.2025 -72.4708 36° Northeast 140 161 5,500  Level Boston Center
05:47PM 42.2294 -72.4372 43° Northeast 136 157 5,500  Level Boston Center
05:47PM 42.2503 -72.4150 38° Northeast 132 152 5,500  Level Boston Center
05:48PM 42.2794 -72.3811 41° Northeast 137 158 5,500  Level Boston Center
05:49PM 42.3044 -72.3531 40° Northeast 137 158 5,500  Level Boston Center
05:50PM 42.3419 -72.3108 40° Northeast 144 166 5,500  Level Boston Center
05:51PM 42.3711 -72.2800 38° Northeast 138 159 5,500  Level Boston Center
05:52PM 42.4003 -72.2433 43° Northeast 133 153 5,500  Level Boston Center
05:53PM 42.4294 -72.2094 41° Northeast 133 153 5,500  Level Boston Center
05:54PM 42.4564 -72.1756 43° Northeast 133 153 5,500  Level Boston Center
05:55PM 42.4856 -72.1444 38° Northeast 133 153 5,500  Level Boston Center
05:56PM 42.5144 -72.1106 41° Northeast 133 153 5,500  Level Boston Center
05:57PM 42.5436 -72.0794 38° Northeast 133 153 5,500  Level Boston Center
05:58PM 42.5728 -72.0453 41° Northeast 133 153 5,500 -60 Level Boston Center
05:59PM 42.5975 -72.0142 43° Northeast 133 153 5,400  Descending Boston Center
06:00PM 42.6286 -71.9803 39° Northeast 133 153 5,500  Climbing Boston Center
06:01PM 42.6536 -71.9489 43° Northeast 133 153 5,500  Level Boston Center
06:03PM 42.6707 -71.8997 65° Northeast  Level FlightAware Approximate
06:10PM 42.8651 -71.6762 39° Northeast  Level Estimated
06:11PM 42.8900 -71.6401 47° Northeast  Level FlightAware Approximate
06:12PM 42.9150 -71.6040 47° Northeast  Level FlightAware Approximate
06:13PM 42.9399 -71.5679 47° Northeast  Level FlightAware Approximate
06:14PM 42.9648 -71.5318 47° Northeast  Level FlightAware Approximate
06:15PM 42.9897 -71.4956 47° Northeast  Level FlightAware Approximate
06:16PM 43.0145 -71.4593 47° Northeast  Level FlightAware Approximate
06:17PM 43.0394 -71.4231 47° Northeast  Level FlightAware Approximate
06:18PM 43.0689 -71.3808 40° Northeast  Level FlightAware Approximate
06:19PM 43.0969 -71.3490 40° Northeast  Level FlightAware Approximate
06:20PM 43.1249 -71.3172 40° Northeast  Level FlightAware Approximate
06:21PM 43.1528 -71.2854 40° Northeast  Level FlightAware Approximate
06:22PM 43.1808 -71.2536 40° Northeast  Level FlightAware Approximate
06:23PM 43.2087 -71.2217 40° Northeast  Level FlightAware Approximate
06:24PM 43.2367 -71.1898 40° Northeast  Level FlightAware Approximate
06:25PM 43.2646 -71.1579 40° Northeast  Level FlightAware Approximate
06:26PM 43.2925 -71.1259 40° Northeast  Level FlightAware Approximate
06:27PM 43.3204 -71.0939 40° Northeast  Level FlightAware Approximate
06:28PM 43.3483 -71.0619 40° Northeast  Level FlightAware Approximate
06:29PM 43.3762 -71.0299 40° Northeast  Level FlightAware Approximate
06:30PM 43.4041 -70.9978 40° Northeast  Level FlightAware Approximate
06:31PM 43.4319 -70.9656 40° Northeast  Level FlightAware Approximate
06:32PM 43.4596 -70.9332 40° Northeast  Level FlightAware Approximate
06:33PM 43.4874 -70.9008 40° Northeast  Level FlightAware Approximate
06:34PM 43.5151 -70.8684 40° Northeast  Level FlightAware Approximate
06:35PM 43.5428 -70.8360 40° Northeast  Level FlightAware Approximate
06:36PM 43.5705 -70.8035 40° Northeast  Level FlightAware Approximate
06:37PM 43.5982 -70.7710 40° Northeast  Level FlightAware Approximate
06:38PM 43.6259 -70.7385 40° Northeast  Level FlightAware Approximate
06:39PM 43.6535 -70.7059 40° Northeast  Level FlightAware Approximate
06:40PM 43.6812 -70.6733 40° Northeast  Level FlightAware Approximate
06:41PM 43.7088 -70.6407 40° Northeast  Level FlightAware Approximate
06:42PM 43.7365 -70.6081 40° Northeast  Level FlightAware Approximate
06:43PM 43.7641 -70.5754 40° Northeast  Level FlightAware Approximate
06:44PM 43.7917 -70.5427 41° Northeast  Level FlightAware Approximate
06:45PM 43.8193 -70.5099 41° Northeast  Level FlightAware Approximate
06:46PM 43.8469 -70.4772 41° Northeast  Level FlightAware Approximate
06:47PM 43.8745 -70.4444 41° Northeast  Level FlightAware Approximate
06:48PM 43.9021 -70.4115 41° Northeast  Level FlightAware Approximate
06:49PM 43.9297 -70.3787 41° Northeast  Level FlightAware Approximate
06:50PM 43.9573 -70.3458 41° Northeast  Level FlightAware Approximate
06:51PM 43.9848 -70.3129 41° Northeast  Level FlightAware Approximate
06:52PM 44.0124 -70.2799 41° Northeast  Level FlightAware Approximate
06:53PM 44.0399 -70.2469 41° Northeast  Level FlightAware Approximate
06:54PM 44.0675 -70.2139 41° Northeast  Level FlightAware Approximate
06:55PM 44.0950 -70.1809 41° Northeast  Level FlightAware Approximate
06:56PM 44.1225 -70.1478 41° Northeast  Level FlightAware Approximate
06:57PM 44.1500 -70.1147 41° Northeast  Level FlightAware Approximate
06:58PM 44.1775 -70.0815 41° Northeast  Level FlightAware Approximate
06:59PM 44.2050 -70.0484 41° Northeast  Level FlightAware Approximate
07:00PM 44.2324 -70.0152 41° Northeast  Level FlightAware Approximate
07:01PM 44.2599 -69.9819 41° Northeast  Level FlightAware Approximate
07:02PM 44.2873 -69.9487 41° Northeast  Level FlightAware Approximate
07:03PM 44.3159 -69.9174 36° Northeast  Level FlightAware Approximate
07:04PM 44.3445 -69.8861 42° Northeast  Level FlightAware Approximate
07:05PM 44.3716 -69.8522 42° Northeast  Level FlightAware Approximate
07:06PM 44.3987 -69.8184 42° Northeast  Level FlightAware Approximate
07:07PM 44.4281 -69.7886 35° Northeast  Level FlightAware Approximate
07:08PM 44.4577 -69.7590 36° Northeast  Level FlightAware Approximate
07:09PM 44.4861 -69.7278 55° Northeast  Level FlightAware Approximate
07:10PM 44.5070 -69.6861 55° Northeast  Level FlightAware Approximate
07:11PM 44.5167 -69.6667 55° Northeast  Level FlightAware Approximate
07:12PM 44.5332 -69.6755 55° Northeast  Level Estimated
07:13PM 44.5332 -69.6755 55° Northeast  Level Estimated
07:14PM 44.5332 -69.6755 55° Northeast  Level Estimated
07:15PM 44.5332 -69.6755 55° Northeast  Level Estimated
07:16PM 44.5332 -69.6755 55° Northeast  Level Estimated
07:17PM 44.5332 -69.6755 55° Northeast  Level Estimated
07:18PM 44.5332 -69.6755 55° Northeast  Level Estimated
07:19PM 44.5332 -69.6755 55° Northeast  Level Estimated
07:20PM 44.5332 -69.6755 55° Northeast  Level Estimated
07:21PM 44.5332 -69.6755 55° Northeast  Level Estimated
07:22PM 44.5332 -69.6755 55° Northeast  Level Estimated
07:23PM 44.5332 -69.6755 55° Northeast  Level Estimated
07:24PM 44.5332 -69.6755 55° Northeast  Level Estimated
07:25PM 44.5332 -69.6755 55° Northeast  Level Estimated
07:26PM 44.5332 -69.6755 55° Northeast  Level Estimated
07:27PM 44.5332 -69.6755 55° Northeast  Level Estimated
07:28PM 44.5332 -69.6755 55° Northeast  Level Estimated
07:29PM 44.5332 -69.6755 55° Northeast  Level Estimated
07:30PM 44.5332 -69.6755 55° Northeast  Level Estimated
07:31PM 44.5332 -69.6755 55° Northeast  Level Estimated